KMWC/MWC METAR and TAF weather

Enter ICAO airport designator
Station Type Date Time Source
KMWC METAR 2018/12/12 07:15 UTC NOAA

KMWC 120715Z AUTO 12008KT 5SM HZ OVC012 00/M02 A2992 RMK AO2


Station Type Date Time Source
KMWC Decoded METAR 2018/12/12 07:15 UTC NOAA

Milwaukee / Timmerman, WI, United States (KMWC) 43-07N 088-02W
Dec 12, 2018 - 02:15 AM EST / 2018.12.12 0715 UTC
Wind: from the ESE (120 degrees) at 9 MPH (8 KT):0
Visibility: 5 mile(s):0
Sky conditions: overcast
Weather: haze
Temperature: 32 F (0 C)
Windchill: 24 F (-4 C):1
Dew Point: 28 F (-2 C)
Relative Humidity: 86%
Pressure (altimeter): 29.92 in. Hg (1013 hPa)
ob: KMWC 120715Z AUTO 12008KT 5SM HZ OVC012 00/M02 A2992 RMK AO2
cycle: 7

Station Type Date Time Source
KMWC TAF UTC NOAA

Error!


Example: see airport list